Accueil
METAR-TAF:

METAR-TAF

Aéroports :

Aéroport international Modibo Keïta

Bamako, Mali

latitude: 12-32N, longitude: 007-57W, altitude: 380 m

Observation

Le bulletin a été fait il y a 20 minutes, à 03:30 UTC
Vent 11 kt de nord
Température 27°C
Humidité 34%
Pression 1013 hPa
Visibilité 10 km ou plus
pas de nuages en-dessous de 1500 mètres et pas de cumulonimbus.

METAR: GABS 190330Z 36011KT CAVOK 27/10 Q1013 NOSIG

Heure: 03:50 (03:50 UTC)

Prévision

Le bulletin a été fait il y a 4 heures et 50 minutes, à 23:00 UTC
Prévision valable du 19 à 00 UTC au 20 à 06 UTC
Vent 8 kt de ouest/nord-ouest
Visibilité 10 km ou plus
pas de nuages en-dessous de 1500 mètres et pas de cumulonimbus.
Probabilité 30% :
Temporairement
du 19 à 06 UTC au 19 à 12 UTC
Visibilité: 4500 m
brume sèche

TAF: GABS 182300Z 1900/2006 30008KT CAVOK PROB30 TEMPO 1906/1912 4500 HZ

Observations et prévisions météorologiques de plus de 4000 aéroports (messages METAR et TAF).

Les stations disponibles sont représentées par des disques jaunes et rouges sur la carte.

Passer la souris dessus pour voir le nom de la station.

Cliquer dessus pour voir les observations et prévisions météorologiques.

Pour changer de carte: cliquez sur les boutons verts avec une croix noire pour zoomer, sur le bouton vert avec un tiret pour effectuer un zoom arrière, ou sur les flèches vertes pour les cartes adjacentes.


METAR-TAF: